Time;durP1;ratioP1;P1;durP2;ratioP2;P2;SDS_P1;SDS_P2;PMS_P1;PMS_P2;Temp;Humidity;BMP_temperature;BMP_pressure;BME280_temperature;BME280_humidity;BME280_pressure;Samples;Min_cycle;Max_cycle;Signal;HPM_P1;HPM_P2
2023/03/13 00:01:30;;;;;;;11.63;3.33;;;;;;;-144.47;100.00;52943.47;5009849;28;20407;-71
2023/03/13 00:03:56;;;;;;;16.17;2.92;;;;;;;-144.47;100.00;52947.47;5007857;28;20025;-69
2023/03/13 00:06:24;;;;;;;8.27;2.95;;;;;;;-144.47;100.00;52949.44;5009183;28;20033;-70
2023/03/13 00:08:49;;;;;;;14.35;3.22;;;;;;;-144.47;100.00;52935.53;5008451;28;20025;-70
2023/03/13 00:11:15;;;;;;;17.55;3.30;;;;;;;-144.47;100.00;52963.34;5008950;28;20466;-68
2023/03/13 00:13:41;;;;;;;23.30;4.07;;;;;;;-144.47;100.00;52943.47;5009152;28;20021;-71
2023/03/13 00:16:10;;;;;;;17.45;3.67;;;;;;;-144.47;100.00;52979.22;5009204;28;20064;-70
2023/03/13 00:18:35;;;;;;;15.25;3.08;;;;;;;-144.47;100.00;52961.34;5007895;28;20030;-69
2023/03/13 00:21:03;;;;;;;13.43;3.13;;;;;;;-144.47;100.00;52961.34;5008913;28;20096;-72
2023/03/13 00:23:29;;;;;;;11.98;3.40;;;;;;;-144.47;100.00;52953.41;5008455;28;20457;-70
2023/03/13 00:26:00;;;;;;;11.23;3.10;;;;;;;-144.47;100.00;52937.53;5007977;28;20029;-70
2023/03/13 00:28:30;;;;;;;9.30;3.13;;;;;;;-144.47;100.00;52971.28;5007739;28;20061;-69
2023/03/13 00:31:07;;;;;;;16.55;3.28;;;;;;;-144.47;100.00;52913.69;5009720;28;20052;-71
2023/03/13 00:33:33;;;;;;;15.75;3.28;;;;;;;-144.47;100.00;52943.47;5014721;28;20153;-73
2023/03/13 00:36:01;;;;;;;12.95;3.03;;;;;;;-144.47;100.00;52939.50;5013783;28;20022;-73
2023/03/13 00:38:28;;;;;;;17.95;3.20;;;;;;;-144.47;100.00;52947.47;5009314;28;20041;-73
2023/03/13 00:41:04;;;;;;;9.68;2.92;;;;;;;-144.47;100.00;52961.34;5011172;28;20021;-70
2023/03/13 00:43:30;;;;;;;16.85;3.53;;;;;;;-144.47;100.00;52943.47;5013459;28;20021;-69
2023/03/13 00:45:55;;;;;;;17.63;4.03;;;;;;;-144.47;100.00;52935.53;5011392;28;20502;-72
2023/03/13 00:48:21;;;;;;;9.68;3.17;;;;;;;-144.47;100.00;52945.47;5012979;28;20044;-71
2023/03/13 00:50:47;;;;;;;11.98;2.63;;;;;;;-144.47;100.00;52951.44;5012896;28;20107;-71
2023/03/13 00:53:12;;;;;;;12.77;2.88;;;;;;;-144.47;100.00;52913.69;5013125;28;20117;-72
2023/03/13 00:55:38;;;;;;;11.43;3.65;;;;;;;-144.47;100.00;52935.53;5012528;28;20056;-71
2023/03/13 00:58:03;;;;;;;15.57;3.53;;;;;;;-144.47;99.98;52941.50;5010611;28;20030;-72
2023/03/13 01:00:29;;;;;;;16.83;3.90;;;;;;;-144.47;99.55;52957.38;5010811;28;20030;-70
2023/03/13 01:02:54;;;;;;;14.82;3.08;;;;;;;-144.47;99.15;52947.47;5011737;28;20022;-70
2023/03/13 01:05:19;;;;;;;14.40;3.95;;;;;;;-144.47;98.83;52939.50;5011376;28;20018;-72
2023/03/13 01:07:45;;;;;;;11.50;2.97;;;;;;;-144.47;98.70;52945.47;5011154;28;20647;-72
2023/03/13 01:10:10;;;;;;;15.05;3.22;;;;;;;-144.47;98.59;52953.41;5010327;28;20096;-73
2023/03/13 01:12:36;;;;;;;14.82;2.67;;;;;;;-144.47;98.42;52933.56;5010765;28;20029;-71
2023/03/13 01:15:01;;;;;;;11.98;3.25;;;;;;;-144.47;98.37;52925.59;5010537;28;20025;-71
2023/03/13 01:17:27;;;;;;;14.45;3.15;;;;;;;-144.47;98.41;52945.47;5009255;28;20042;-72
2023/03/13 01:19:57;;;;;;;15.80;3.65;;;;;;;-144.47;98.00;52919.66;5010094;28;20032;-71
2023/03/13 01:22:22;;;;;;;11.63;2.72;;;;;;;-144.47;97.92;52919.66;5010273;28;20057;-71
2023/03/13 01:24:51;;;;;;;12.88;3.28;;;;;;;-144.47;97.91;52965.34;5007812;28;20045;-70
2023/03/13 01:27:17;;;;;;;17.48;3.60;;;;;;;-144.47;97.61;52919.66;5010438;28;20028;-73
2023/03/13 01:29:42;;;;;;;14.23;2.50;;;;;;;-144.47;97.57;52923.63;5013494;28;20030;-71
2023/03/13 01:32:08;;;;;;;14.05;2.85;;;;;;;-144.47;97.05;52921.63;5016866;28;20040;-70
2023/03/13 01:34:33;;;;;;;15.45;2.88;;;;;;;-144.47;96.47;52939.50;5027882;28;20092;-72
2023/03/13 01:36:59;;;;;;;15.45;2.80;;;;;;;-144.47;96.04;52931.56;5027023;28;20033;-68
2023/03/13 01:39:24;;;;;;;11.57;3.03;;;;;;;-144.47;95.82;52945.47;5024181;28;20460;-71
2023/03/13 01:41:49;;;;;;;15.07;3.22;;;;;;;-144.47;95.44;52929.59;5019536;28;20494;-70
2023/03/13 01:44:24;;;;;;;13.23;2.78;;;;;;;-144.47;95.07;52919.66;5018562;28;20030;-72
2023/03/13 01:46:49;;;;;;;17.58;3.53;;;;;;;-144.47;94.49;52903.75;5018446;28;20081;-69
2023/03/13 01:49:34;;;;;;;17.35;3.20;;;;;;;-144.47;94.12;52911.69;5010867;28;20036;-71
2023/03/13 01:52:07;;;;;;;12.85;2.85;;;;;;;-144.47;93.95;52929.59;5003994;28;20064;-72
2023/03/13 01:54:39;;;;;;;15.45;3.25;;;;;;;-144.47;93.74;52929.59;5010402;28;20376;-70
2023/03/13 01:57:12;;;;;;;15.32;3.28;;;;;;;-144.47;93.89;52927.59;5015071;28;20120;-69
2023/03/13 01:59:45;;;;;;;15.77;3.53;;;;;;;-144.47;93.49;52909.72;5016464;28;20064;-70
2023/03/13 02:02:12;;;;;;;30.55;3.65;;;;;;;-144.47;93.38;52931.56;5016425;28;20033;-72
2023/03/13 02:04:40;;;;;;;16.00;3.10;;;;;;;-144.47;93.64;52935.53;5014081;28;20451;-73
2023/03/13 02:07:11;;;;;;;18.05;3.33;;;;;;;-144.47;93.41;52943.47;5015102;28;20040;-70
2023/03/13 02:09:39;;;;;;;16.38;3.22;;;;;;;-144.47;93.58;52943.47;5028233;28;20040;-71
2023/03/13 02:12:23;;;;;;;18.73;3.20;;;;;;;-144.47;93.63;52919.66;5020741;28;20033;-71
2023/03/13 02:14:50;;;;;;;20.80;3.25;;;;;;;-144.47;93.28;52921.63;5012549;28;20045;-72
2023/03/13 02:17:15;;;;;;;18.70;3.10;;;;;;;-144.47;93.26;52899.78;5011665;28;20030;-72
2023/03/13 02:19:43;;;;;;;14.02;2.58;;;;;;;-144.47;93.06;52941.50;5017872;28;20088;-71
2023/03/13 02:22:20;;;;;;;17.90;3.22;;;;;;;-144.47;92.96;52933.56;5015320;28;20044;-72
2023/03/13 02:24:54;;;;;;;20.65;3.25;;;;;;;-144.47;93.28;52905.75;5014186;28;20021;-72
2023/03/13 02:27:20;;;;;;;15.48;3.42;;;;;;;-144.47;93.34;52905.75;5015528;28;20045;-72
2023/03/13 02:29:46;;;;;;;20.60;2.65;;;;;;;-144.47;93.51;52921.63;5016256;28;20037;-71
2023/03/13 02:32:12;;;;;;;20.27;3.45;;;;;;;-144.47;93.90;52947.47;5016080;28;20030;-71
2023/03/13 02:34:40;;;;;;;15.60;3.92;;;;;;;-144.47;93.93;52943.47;5027236;28;20059;-73
2023/03/13 02:37:09;;;;;;;19.10;3.38;;;;;;;-144.47;94.03;52933.56;5015917;28;20029;-72
2023/03/13 02:39:37;;;;;;;11.82;2.65;;;;;;;-144.47;93.94;52935.53;5016400;28;20496;-72
2023/03/13 02:42:03;;;;;;;27.00;2.92;;;;;;;-144.47;93.70;52931.56;5015206;28;20033;-69
2023/03/13 02:44:28;;;;;;;10.45;2.47;;;;;;;-144.47;93.78;52905.75;5011777;28;20033;-72
2023/03/13 02:46:53;;;;;;;15.80;3.30;;;;;;;-144.47;94.05;52951.44;5010934;28;20125;-70
2023/03/13 02:49:22;;;;;;;22.25;3.53;;;;;;;-144.47;93.88;52913.69;5010947;28;20061;-71
2023/03/13 02:51:47;;;;;;;17.95;2.90;;;;;;;-144.47;93.74;52959.38;5010933;28;20375;-72
2023/03/13 02:54:18;;;;;;;13.07;2.95;;;;;;;-144.47;93.83;52883.91;5010089;28;20109;-69
2023/03/13 02:56:49;;;;;;;19.75;2.97;;;;;;;-144.47;93.70;52939.50;5011818;28;20041;-70
2023/03/13 02:59:15;;;;;;;18.65;2.90;;;;;;;-144.47;93.64;52907.72;5012993;28;20380;-70
2023/03/13 03:01:40;;;;;;;15.50;2.80;;;;;;;-144.47;93.69;52939.50;5009779;28;20022;-72
2023/03/13 03:04:06;;;;;;;14.05;2.60;;;;;;;-144.47;93.63;52931.56;5009807;28;20030;-72
2023/03/13 03:06:31;;;;;;;16.27;3.20;;;;;;;-144.47;93.40;52917.66;5009799;28;20492;-70
2023/03/13 03:08:57;;;;;;;15.63;2.97;;;;;;;-144.47;93.37;52905.75;5022236;28;20021;-71
2023/03/13 03:11:22;;;;;;;14.23;2.58;;;;;;;-144.47;93.12;52917.66;5012232;28;20109;-72
2023/03/13 03:13:48;;;;;;;19.42;3.30;;;;;;;-144.47;93.10;52909.72;5014828;28;20125;-69
2023/03/13 03:16:17;;;;;;;16.38;3.00;;;;;;;-144.47;93.01;52931.56;5010281;28;20030;-69
2023/03/13 03:18:43;;;;;;;16.00;2.90;;;;;;;-144.47;93.15;52899.78;5007915;28;20026;-72
2023/03/13 03:21:08;;;;;;;15.85;3.30;;;;;;;-144.47;93.05;52905.75;5013783;28;20045;-71
2023/03/13 03:23:35;;;;;;;16.02;3.35;;;;;;;-144.47;93.26;52923.63;5013324;28;20037;-70
2023/03/13 03:26:01;;;;;;;18.15;3.10;;;;;;;-144.47;93.06;52917.66;5013202;28;20037;-72
2023/03/13 03:28:26;;;;;;;12.65;2.60;;;;;;;-144.47;93.00;52931.56;5011900;28;20030;-68
2023/03/13 03:30:53;;;;;;;7.75;2.15;;;;;;;-144.47;92.96;52937.53;5010308;28;20030;-71
2023/03/13 03:33:19;;;;;;;15.07;2.83;;;;;;;-144.47;92.71;52917.66;5012276;28;20028;-71
2023/03/13 03:35:45;;;;;;;14.27;2.67;;;;;;;-144.47;92.46;52917.66;5021341;28;20022;-71
2023/03/13 03:38:10;;;;;;;13.40;2.78;;;;;;;-144.47;92.29;52917.66;5013602;28;20053;-72
2023/03/13 03:40:36;;;;;;;12.50;2.50;;;;;;;-144.47;92.53;52919.66;5016263;28;20072;-69
2023/03/13 03:43:01;;;;;;;16.63;2.97;;;;;;;-144.47;92.48;52925.59;5014948;28;20030;-72
2023/03/13 03:45:27;;;;;;;19.70;2.72;;;;;;;-144.47;92.31;52927.59;5015135;28;20014;-68
2023/03/13 03:47:52;;;;;;;15.80;3.42;;;;;;;-144.47;92.13;52921.63;5014059;28;20057;-71
2023/03/13 03:50:17;;;;;;;13.27;2.35;;;;;;;-144.47;91.94;52927.59;5011531;28;20022;-71
2023/03/13 03:52:43;;;;;;;18.35;2.60;;;;;;;-144.47;91.74;52891.84;5011177;28;20033;-69
2023/03/13 03:55:08;;;;;;;18.77;2.08;;;;;;;-144.47;91.63;52913.69;5008839;28;20212;-72
2023/03/13 03:57:34;;;;;;;11.57;2.70;;;;;;;-144.47;91.05;52927.59;5012292;28;20025;-70
2023/03/13 03:59:59;;;;;;;16.17;2.28;;;;;;;-144.47;91.18;52905.75;5011512;28;20387;-72
2023/03/13 04:02:24;;;;;;;14.93;3.53;;;;;;;-144.47;91.21;52923.63;5010428;28;20060;-70
2023/03/13 04:04:50;;;;;;;18.20;2.35;;;;;;;-144.47;91.32;52905.75;5010126;28;20030;-72
2023/03/13 04:07:15;;;;;;;15.75;2.58;;;;;;;-144.47;91.27;52927.59;5009511;28;20056;-71
2023/03/13 04:09:40;;;;;;;10.15;2.15;;;;;;;-144.47;91.13;52897.81;5017497;28;20101;-72
2023/03/13 04:12:06;;;;;;;12.05;2.72;;;;;;;-144.47;91.32;52919.66;5010989;28;20033;-70
2023/03/13 04:14:32;;;;;;;11.63;2.63;;;;;;;-144.47;91.50;52915.69;5013612;28;20522;-69
2023/03/13 04:16:57;;;;;;;31.23;4.13;;;;;;;-144.47;91.54;52931.56;5002345;28;20081;-70
2023/03/13 04:19:23;;;;;;;13.77;2.58;;;;;;;-144.47;91.70;52923.63;5012448;28;20022;-69
2023/03/13 04:21:48;;;;;;;9.85;2.15;;;;;;;-144.47;91.97;52919.66;5013697;28;20026;-71
2023/03/13 04:24:13;;;;;;;12.20;2.55;;;;;;;-144.47;92.22;52941.50;5012119;28;20091;-70
2023/03/13 04:26:39;;;;;;;21.48;3.85;;;;;;;-144.47;92.18;52903.75;5012353;28;20018;-73
2023/03/13 04:29:05;;;;;;;20.55;3.15;;;;;;;-144.47;92.34;52919.66;5012756;28;20032;-71
2023/03/13 04:31:32;;;;;;;16.52;2.80;;;;;;;-144.47;92.65;52923.63;5014223;28;20049;-70
2023/03/13 04:33:57;;;;;;;16.13;3.22;;;;;;;-144.47;92.81;52923.63;5013454;28;20053;-72
2023/03/13 04:36:22;;;;;;;12.25;2.10;;;;;;;-144.47;93.07;52903.75;5020557;28;20076;-68
2023/03/13 04:38:48;;;;;;;10.18;2.60;;;;;;;-144.47;93.16;52899.78;5013602;28;20026;-70
2023/03/13 04:41:13;;;;;;;26.52;5.80;;;;;;;-144.47;93.17;52897.81;5010899;28;20570;-69
2023/03/13 04:43:38;;;;;;;20.95;4.32;;;;;;;-144.47;93.61;52945.47;5008393;28;20025;-70
2023/03/13 04:46:04;;;;;;;13.60;2.40;;;;;;;-144.47;93.80;52899.78;5009508;28;20029;-69
2023/03/13 04:48:29;;;;;;;16.17;3.35;;;;;;;-144.47;93.93;52937.53;5016450;28;20200;-72
2023/03/13 04:50:55;;;;;;;18.67;3.83;;;;;;;-144.47;94.10;52927.59;5017728;28;20094;-71
2023/03/13 04:53:20;;;;;;;22.95;3.80;;;;;;;-144.47;94.25;52915.69;5012929;28;20113;-69
2023/03/13 04:55:47;;;;;;;16.83;4.00;;;;;;;-144.47;94.14;52957.38;5011369;28;20637;-72
2023/03/13 04:58:12;;;;;;;18.83;2.70;;;;;;;-144.47;94.44;52909.72;5009373;28;20022;-70
2023/03/13 05:00:41;;;;;;;14.20;2.83;;;;;;;-144.47;94.30;52933.56;5013635;28;20046;-72
2023/03/13 05:03:06;;;;;;;12.65;2.97;;;;;;;-144.47;94.00;52911.69;5013034;28;20021;-71
2023/03/13 05:05:34;;;;;;;12.70;2.83;;;;;;;-144.47;94.13;52923.63;5011383;28;20478;-69
2023/03/13 05:07:59;;;;;;;20.13;3.75;;;;;;;-144.47;94.43;52903.75;5012973;28;20071;-73
2023/03/13 05:10:24;;;;;;;15.48;3.08;;;;;;;-144.47;94.21;52899.78;5017397;28;20030;-72
2023/03/13 05:12:50;;;;;;;16.05;2.80;;;;;;;-144.47;94.05;52925.59;5010211;28;20745;-69
2023/03/13 05:15:15;;;;;;;16.50;3.30;;;;;;;-144.47;94.10;52941.50;5009601;28;20121;-70
2023/03/13 05:17:41;;;;;;;14.07;3.00;;;;;;;-144.47;94.25;52905.75;4996885;28;20021;-70
2023/03/13 05:20:10;;;;;;;18.60;3.50;;;;;;;-144.47;94.41;52939.50;5008743;28;20030;-70
2023/03/13 05:22:35;;;;;;;;;;;;;;;-144.47;94.40;52923.63;5009438;28;20418;-71
2023/03/13 05:25:00;;;;;;;15.10;2.55;;;;;;;-144.47;94.62;52929.59;5008303;28;19917;-70
2023/03/13 05:27:26;;;;;;;11.02;2.88;;;;;;;-144.47;94.60;52941.50;5011803;28;20140;-72
2023/03/13 05:29:51;;;;;;;15.23;3.08;;;;;;;-144.47;94.58;52927.59;5013550;28;20472;-69
2023/03/13 05:32:16;;;;;;;15.40;3.53;;;;;;;-144.47;94.49;52921.63;5014235;28;20066;-71
2023/03/13 05:34:42;;;;;;;18.80;3.13;;;;;;;-144.47;94.75;52945.47;5020982;28;20021;-70
2023/03/13 05:37:07;;;;;;;18.55;2.65;;;;;;;-144.47;94.52;52907.72;5015611;28;20638;-72
2023/03/13 05:39:32;;;;;;;15.52;3.65;;;;;;;-144.47;94.35;52895.81;5011503;28;20387;-71
2023/03/13 05:41:58;;;;;;;19.83;3.22;;;;;;;-144.47;94.32;52899.78;5016561;28;20709;-72
2023/03/13 05:44:23;;;;;;;13.75;2.75;;;;;;;-144.47;94.14;52885.88;5017383;28;20491;-71
2023/03/13 05:46:49;;;;;;;16.30;3.38;;;;;;;-144.47;94.00;52915.69;5016351;28;20375;-70
2023/03/13 05:49:14;;;;;;;20.58;5.03;;;;;;;-144.47;93.66;52905.75;5014635;28;20096;-70
2023/03/13 05:51:39;;;;;;;16.35;4.07;;;;;;;-144.47;93.86;52885.88;5012303;28;20049;-71
2023/03/13 05:54:05;;;;;;;18.67;3.13;;;;;;;-144.47;93.88;52913.69;5013564;28;20045;-71
2023/03/13 05:56:30;;;;;;;11.30;2.65;;;;;;;-144.47;93.66;52919.66;5015386;28;20037;-69
2023/03/13 05:58:55;;;;;;;14.30;4.07;;;;;;;-144.47;93.66;52919.66;5016179;28;20040;-72
2023/03/13 06:01:21;;;;;;;15.25;3.05;;;;;;;-144.47;93.39;52881.91;5014544;28;20098;-70
2023/03/13 06:03:46;;;;;;;17.30;3.50;;;;;;;-144.47;93.43;52905.75;5016824;28;20033;-73
2023/03/13 06:06:12;;;;;;;13.57;2.85;;;;;;;-144.47;93.57;52911.69;5015686;28;20077;-67
2023/03/13 06:08:39;;;;;;;21.65;3.00;;;;;;;-144.47;93.64;52901.78;5016535;28;20026;-70
2023/03/13 06:11:05;;;;;;;13.05;3.03;;;;;;;-144.47;94.20;52901.78;5016672;28;20081;-70
2023/03/13 06:13:30;;;;;;;14.55;3.45;;;;;;;-144.47;94.64;52899.78;5016776;28;20342;-70
2023/03/13 06:15:57;;;;;;;16.50;3.22;;;;;;;-144.47;94.78;52915.69;5017066;28;20026;-70
2023/03/13 06:18:22;;;;;;;15.30;4.18;;;;;;;-144.47;95.30;52870.00;5015083;28;20113;-70
2023/03/13 06:20:49;;;;;;;12.85;3.35;;;;;;;-144.47;95.55;52907.72;5018169;28;20376;-68
2023/03/13 06:23:15;;;;;;;13.55;3.03;;;;;;;-144.47;96.18;52909.72;5015421;28;20045;-71
2023/03/13 06:25:40;;;;;;;18.77;4.13;;;;;;;-144.47;96.56;52901.78;5014985;28;20017;-72
2023/03/13 06:28:06;;;;;;;16.55;3.53;;;;;;;-144.47;97.09;52877.94;5014139;28;20026;-71
2023/03/13 06:30:31;;;;;;;16.88;4.75;;;;;;;-144.47;96.64;52915.69;5015573;28;20332;-70
2023/03/13 06:32:57;;;;;;;14.50;3.38;;;;;;;-144.47;96.74;52903.75;5018299;28;20491;-73
2023/03/13 06:35:23;;;;;;;13.13;3.78;;;;;;;-144.47;96.79;52915.69;5028994;28;20105;-70
2023/03/13 06:37:49;;;;;;;16.33;2.97;;;;;;;-144.47;96.69;52925.59;5015606;28;20060;-69
2023/03/13 06:40:14;;;;;;;8.25;2.72;;;;;;;-144.47;96.73;52907.72;5017037;28;20030;-72
2023/03/13 06:42:40;;;;;;;13.80;2.60;;;;;;;-144.47;96.55;52899.78;5017812;28;20030;-69
2023/03/13 06:45:06;;;;;;;12.00;2.60;;;;;;;-144.47;96.62;52887.88;5020139;28;20083;-71
2023/03/13 06:47:31;;;;;;;10.05;2.90;;;;;;;-144.47;96.63;52889.84;5020924;28;20037;-72
2023/03/13 06:49:57;;;;;;;16.73;3.10;;;;;;;-144.47;96.67;52871.97;5014598;28;20117;-70
2023/03/13 06:52:22;;;;;;;10.13;2.50;;;;;;;-144.47;96.51;52871.97;5014551;28;20424;-71
2023/03/13 06:54:48;;;;;;;14.65;3.17;;;;;;;-144.47;95.83;52929.59;5015106;28;20026;-68
2023/03/13 06:57:13;;;;;;;10.05;2.03;;;;;;;-144.47;95.92;52895.81;5016695;28;20085;-71
2023/03/13 06:59:38;;;;;;;14.68;2.33;;;;;;;-144.47;95.82;52891.84;5024312;28;20037;-72
2023/03/13 07:02:04;;;;;;;8.60;2.40;;;;;;;-144.47;95.60;52915.69;5025411;28;20030;-71
2023/03/13 07:04:29;;;;;;;11.85;2.55;;;;;;;-144.47;94.72;52891.84;5024631;28;20029;-71
2023/03/13 07:06:55;;;;;;;17.70;3.10;;;;;;;-144.47;94.49;52864.03;5022688;28;20033;-71
2023/03/13 07:09:20;;;;;;;12.35;2.75;;;;;;;-144.47;94.66;52885.88;5023938;28;20030;-70
2023/03/13 07:11:46;;;;;;;17.63;3.25;;;;;;;-144.47;94.35;52903.75;5028164;28;20165;-72
2023/03/13 07:14:12;;;;;;;18.35;3.47;;;;;;;-144.47;93.75;52907.72;5025119;28;20522;-70
2023/03/13 07:16:37;;;;;;;15.57;2.88;;;;;;;-144.47;93.53;52891.84;5016738;28;20441;-68
2023/03/13 07:19:02;;;;;;;10.82;2.85;;;;;;;-144.47;93.49;52887.88;5024424;28;20032;-70
2023/03/13 07:21:28;;;;;;;8.40;2.13;;;;;;;-144.47;93.05;52885.88;5026745;28;20097;-70
2023/03/13 07:23:53;;;;;;;14.40;2.40;;;;;;;-144.47;93.13;52893.81;5028057;28;20131;-71
2023/03/13 07:26:19;;;;;;;12.02;2.78;;;;;;;-144.47;93.23;52889.84;5026041;28;20026;-68
2023/03/13 07:28:45;;;;;;;13.15;2.20;;;;;;;-144.47;93.02;52887.88;5025632;28;20026;-71
2023/03/13 07:31:14;;;;;;;8.23;2.50;;;;;;;-144.47;92.76;52897.81;5014006;28;20021;-70
2023/03/13 07:33:40;;;;;;;9.57;1.70;;;;;;;-144.47;92.74;52875.94;5008430;28;20614;-69
2023/03/13 07:36:07;;;;;;;10.23;2.30;;;;;;;-144.47;92.31;52868.00;5030058;28;20040;-68
2023/03/13 07:38:32;;;;;;;4.97;1.63;;;;;;;-144.47;91.82;52889.84;5012803;28;20136;-71
2023/03/13 07:40:58;;;;;;;6.28;1.60;;;;;;;-144.47;91.70;52881.91;5012436;28;20041;-69
2023/03/13 07:43:25;;;;;;;6.50;1.60;;;;;;;-144.47;91.20;52860.06;5012097;28;20026;-72
2023/03/13 07:45:59;;;;;;;7.43;2.10;;;;;;;-144.47;90.93;52899.78;5013210;28;20392;-70
2023/03/13 07:48:28;;;;;;;5.07;1.65;;;;;;;-144.47;91.23;52856.09;4998492;28;20062;-72
2023/03/13 07:50:54;;;;;;;6.05;1.25;;;;;;;-144.47;91.02;52850.13;5012947;28;20512;-70
2023/03/13 07:53:20;;;;;;;6.97;1.33;;;;;;;-144.47;90.83;52860.06;5015497;28;20101;-72
2023/03/13 07:55:57;;;;;;;7.15;1.60;;;;;;;-144.47;90.75;52866.03;5013842;28;20610;-70
2023/03/13 07:58:24;;;;;;;6.25;1.42;;;;;;;-144.47;90.63;52858.06;5019342;28;20022;-69
2023/03/13 08:00:51;;;;;;;3.67;0.80;;;;;;;-144.47;90.21;52864.03;5017600;28;20080;-70
2023/03/13 08:03:16;;;;;;;6.57;1.48;;;;;;;-144.47;90.03;52834.25;5018654;28;20033;-71
2023/03/13 08:05:42;;;;;;;8.40;1.23;;;;;;;-144.47;90.24;52854.09;5018140;28;20045;-69
2023/03/13 08:08:07;;;;;;;2.33;1.00;;;;;;;-144.47;89.76;52875.94;5022225;28;20044;-70
2023/03/13 08:10:33;;;;;;;3.05;0.82;;;;;;;-144.47;89.62;52881.91;5028661;28;20426;-69
2023/03/13 08:12:58;;;;;;;5.63;1.55;;;;;;;-144.47;89.89;52862.06;5025287;28;20044;-71
2023/03/13 08:15:27;;;;;;;4.88;1.20;;;;;;;-144.47;90.03;52858.06;5022446;28;20025;-70
2023/03/13 08:17:53;;;;;;;6.47;1.60;;;;;;;-144.47;90.04;52858.06;5017158;28;20033;-69
2023/03/13 08:20:19;;;;;;;2.90;1.15;;;;;;;-144.47;90.38;52856.09;5018367;28;20034;-70
2023/03/13 08:22:49;;;;;;;5.55;1.13;;;;;;;-144.47;90.70;52887.88;5017345;28;20497;-70
2023/03/13 08:25:15;;;;;;;5.03;1.42;;;;;;;-144.47;90.20;52860.06;5010914;28;20037;-70
2023/03/13 08:27:40;;;;;;;2.90;0.75;;;;;;;-144.47;90.33;52860.06;5011860;28;20037;-68
2023/03/13 08:30:10;;;;;;;5.18;1.45;;;;;;;-144.47;90.60;52860.06;5014975;28;20516;-71
2023/03/13 08:32:35;;;;;;;2.08;0.75;;;;;;;-144.47;90.85;52883.91;5006480;28;20349;-71
2023/03/13 08:35:02;;;;;;;2.55;1.10;;;;;;;-144.47;90.99;52844.19;5020152;28;20026;-68
2023/03/13 08:37:27;;;;;;;9.00;1.10;;;;;;;-144.47;91.56;52871.97;5020182;28;20021;-70
2023/03/13 08:39:55;;;;;;;2.90;1.10;;;;;;;-144.47;91.20;52883.91;5010855;28;20079;-68
2023/03/13 08:42:21;;;;;;;2.28;0.98;;;;;;;-144.47;91.23;52830.28;5010433;28;20071;-68
2023/03/13 08:44:46;;;;;;;2.55;0.95;;;;;;;-144.47;91.59;52848.16;5011687;28;20030;-70
2023/03/13 08:47:12;;;;;;;4.43;0.90;;;;;;;-144.47;91.37;52881.91;5011544;28;20044;-71
2023/03/13 08:49:37;;;;;;;5.32;1.05;;;;;;;-144.47;91.22;52873.97;5009983;28;20614;-71
2023/03/13 08:52:06;;;;;;;7.97;1.13;;;;;;;-144.47;90.80;52868.00;5010747;28;20068;-68
2023/03/13 08:54:34;;;;;;;2.67;0.85;;;;;;;-144.47;90.72;52840.19;5011078;28;20021;-69
2023/03/13 08:57:00;;;;;;;2.30;0.90;;;;;;;-144.47;90.70;52862.06;5010968;28;20102;-69
2023/03/13 08:59:26;;;;;;;7.25;1.45;;;;;;;-144.47;90.43;52879.94;5010132;28;20616;-71
2023/03/13 09:01:51;;;;;;;4.07;1.02;;;;;;;-144.47;90.52;52858.06;5010146;28;20060;-71
2023/03/13 09:04:18;;;;;;;3.67;0.98;;;;;;;-144.47;90.52;52875.94;5009966;28;20128;-73
2023/03/13 09:06:43;;;;;;;5.55;1.08;;;;;;;-144.47;90.61;52875.94;5009220;28;20018;-70
2023/03/13 09:09:09;;;;;;;1.45;0.85;;;;;;;-144.47;90.30;52846.16;5014159;28;20344;-69
2023/03/13 09:11:38;;;;;;;7.10;1.10;;;;;;;-144.47;90.52;52868.00;5009872;28;20496;-70
2023/03/13 09:14:04;;;;;;;6.65;1.30;;;;;;;-144.47;90.53;52844.19;5010233;28;20041;-69
2023/03/13 09:16:31;;;;;;;2.65;0.80;;;;;;;-144.47;90.37;52852.13;5010117;28;20129;-73
2023/03/13 09:18:57;;;;;;;3.00;1.27;;;;;;;-144.47;90.60;52877.94;5009927;28;20057;-70
2023/03/13 09:21:34;;;;;;;6.22;1.20;;;;;;;-144.47;90.57;52852.13;5010153;28;20042;-70
2023/03/13 09:24:00;;;;;;;3.97;0.93;;;;;;;-144.47;90.46;52873.97;5012378;28;20476;-71
2023/03/13 09:26:26;;;;;;;1.40;0.88;;;;;;;-144.47;90.14;52856.09;5014530;28;20025;-71
2023/03/13 09:28:53;;;;;;;3.75;1.05;;;;;;;-144.47;89.98;52860.06;5017174;28;20030;-71
2023/03/13 09:31:30;;;;;;;2.53;1.02;;;;;;;-144.47;89.40;52842.19;5014023;28;20112;-69
2023/03/13 09:33:56;;;;;;;2.70;1.10;;;;;;;-144.47;89.23;52826.31;5010647;28;20018;-71
2023/03/13 09:36:22;;;;;;;1.42;0.70;;;;;;;-144.47;88.97;52873.97;5022059;28;20614;-71
2023/03/13 09:38:52;;;;;;;2.70;0.93;;;;;;;-144.47;88.21;52840.19;5010771;28;20028;-72
2023/03/13 09:41:21;;;;;;;3.90;1.10;;;;;;;-144.47;87.86;52856.09;5009970;28;20065;-70
2023/03/13 09:43:55;;;;;;;2.38;0.90;;;;;;;-144.47;87.50;52860.06;5011285;28;20571;-71
2023/03/13 09:46:31;;;;;;;3.28;0.98;;;;;;;-144.47;87.46;52838.22;5010224;28;20034;-71
2023/03/13 09:49:01;;;;;;;1.80;0.68;;;;;;;-144.47;87.47;52842.19;5010448;28;20121;-69
2023/03/13 09:51:34;;;;;;;1.52;0.90;;;;;;;-144.47;87.47;52868.00;5010633;28;20045;-71
2023/03/13 09:54:21;;;;;;;2.65;0.73;;;;;;;-144.47;87.72;52856.09;5009626;28;20026;-67
2023/03/13 09:57:06;;;;;;;3.08;0.90;;;;;;;-144.47;87.75;52818.34;5000043;28;20045;-70
2023/03/13 09:59:47;;;;;;;4.28;1.48;;;;;;;-144.47;87.98;52820.34;5009875;28;20022;-72
2023/03/13 10:02:36;;;;;;;2.58;1.00;;;;;;;-144.47;88.01;52842.19;5009826;28;20115;-73
2023/03/13 10:05:14;;;;;;;3.15;0.80;;;;;;;-144.47;87.98;52842.19;5009959;28;20026;-70
2023/03/13 10:07:39;;;;;;;3.08;0.82;;;;;;;-144.47;87.83;52856.09;5004464;28;20028;-71
2023/03/13 10:10:12;;;;;;;0.60;0.55;;;;;;;-144.47;87.65;52866.03;5017928;28;20107;-71
2023/03/13 10:12:44;;;;;;;1.50;0.70;;;;;;;-144.47;87.65;52846.16;5008740;28;20025;-69
2023/03/13 10:15:42;;;;;;;1.95;0.82;;;;;;;-144.47;87.72;52862.06;5008634;28;20053;-71
2023/03/13 10:18:15;;;;;;;1.48;0.95;;;;;;;-144.47;87.78;52858.06;4996017;28;20056;-68
2023/03/13 10:20:42;;;;;;;1.80;0.90;;;;;;;-144.47;87.69;52838.22;5012943;28;20053;-68
2023/03/13 10:23:17;;;;;;;1.58;0.80;;;;;;;-144.47;87.64;52850.13;5014919;28;20061;-70
2023/03/13 10:25:43;;;;;;;0.65;0.57;;;;;;;-144.47;87.39;52848.16;5014905;28;20042;-69
2023/03/13 10:28:12;;;;;;;1.13;0.70;;;;;;;-144.47;87.40;52818.34;5015298;28;20037;-68
2023/03/13 10:30:42;;;;;;;1.00;0.60;;;;;;;-144.47;87.52;52846.16;5018571;28;20057;-71
2023/03/13 10:33:11;;;;;;;0.70;0.60;;;;;;;-144.47;87.29;52858.06;5068742;22;20047;-74
2023/03/13 10:35:40;;;;;;;1.15;0.52;;;;;;;-144.47;86.90;52812.41;5086778;28;20059;-73
2023/03/13 10:38:11;;;;;;;1.20;0.70;;;;;;;-144.47;86.91;52822.31;5076960;28;20086;-73
2023/03/13 10:40:36;;;;;;;2.20;1.05;;;;;;;-144.47;86.35;52836.22;5072363;28;20032;-73
2023/03/13 10:43:20;;;;;;;2.33;0.75;;;;;;;-144.47;86.14;52850.13;5059130;28;20024;-72
2023/03/13 10:45:45;;;;;;;1.40;0.85;;;;;;;-144.47;86.07;52844.19;5052300;28;20029;-74
2023/03/13 10:48:19;;;;;;;1.75;0.82;;;;;;;-144.47;85.97;52860.06;5050996;28;20031;-73
2023/03/13 10:50:51;;;;;;;1.92;0.82;;;;;;;-144.47;85.70;52828.28;5052263;28;20108;-72
2023/03/13 10:53:22;;;;;;;1.15;0.70;;;;;;;-144.47;85.80;52842.19;5046678;28;20398;-73
2023/03/13 10:55:48;;;;;;;5.50;0.80;;;;;;;-144.47;86.06;52832.25;5052533;28;20029;-73
2023/03/13 10:58:26;;;;;;;2.40;1.08;;;;;;;-144.47;86.31;52800.47;5052694;28;20506;-74
2023/03/13 11:01:08;;;;;;;1.08;0.70;;;;;;;-144.47;86.25;52836.22;5034162;28;20029;-74
2023/03/13 11:03:34;;;;;;;1.77;0.90;;;;;;;-144.47;86.33;52806.44;5051384;28;20116;-72
2023/03/13 11:06:02;;;;;;;0.90;0.60;;;;;;;-144.47;85.68;52848.16;5051453;28;20013;-73
2023/03/13 11:08:40;;;;;;;1.30;0.80;;;;;;;-144.47;84.64;52822.31;5054320;28;20507;-73
2023/03/13 11:11:18;;;;;;;1.33;0.70;;;;;;;-144.47;84.35;52828.28;5051140;28;20039;-72
2023/03/13 11:13:44;;;;;;;1.55;0.80;;;;;;;-144.47;83.65;52802.47;5051714;28;20036;-72